Time;durP1;ratioP1;P1;durP2;ratioP2;P2;SDS_P1;SDS_P2;PMS_P1;PMS_P2;Temp;Humidity;BMP_temperature;BMP_pressure;BME280_temperature;BME280_humidity;BME280_pressure;Samples;Min_cycle;Max_cycle;Signal;HPM_P1;HPM_P2
2023/04/25 00:00:38;;;;;;;4.45;1.70;;;;;;;;;;5050391;28;20044;-80
2023/04/25 00:03:05;;;;;;;5.28;1.52;;;;;;;;;;5039811;28;20044;-79
2023/04/25 00:05:31;;;;;;;2.77;1.20;;;;;;;;;;5052547;28;20044;-79
2023/04/25 00:07:57;;;;;;;3.55;1.30;;;;;;;;;;5052620;28;20032;-79
2023/04/25 00:10:23;;;;;;;2.88;1.20;;;;;;;;;;5050491;28;20029;-79
2023/04/25 00:12:48;;;;;;;2.78;1.10;;;;;;;;;;5056371;28;20420;-79
2023/04/25 00:15:14;;;;;;;3.13;1.17;;;;;;;;;;5053487;28;20527;-80
2023/04/25 00:17:39;;;;;;;5.40;1.50;;;;;;;;;;5042554;28;20044;-80
2023/04/25 00:20:06;;;;;;;3.40;1.27;;;;;;;;;;5052162;28;20123;-79
2023/04/25 00:22:34;;;;;;;2.97;1.23;;;;;;;;;;5051358;28;20033;-79
2023/04/25 00:25:00;;;;;;;;;;;;;;;;;;5058557;28;20072;-80
2023/04/25 00:27:26;;;;;;;3.95;1.20;;;;;;;;;;5051718;28;19920;-79
2023/04/25 00:29:51;;;;;;;4.47;1.42;;;;;;;;;;5049827;28;20178;-79
2023/04/25 00:32:17;;;;;;;6.10;1.50;;;;;;;;;;5053235;28;20055;-79
2023/04/25 00:34:42;;;;;;;5.57;1.65;;;;;;;;;;5054542;28;20032;-80
2023/04/25 00:37:07;;;;;;;3.95;1.45;;;;;;;;;;5049162;28;20396;-79
2023/04/25 00:39:33;;;;;;;2.78;1.20;;;;;;;;;;5051289;28;20494;-79
2023/04/25 00:41:58;;;;;;;2.60;1.40;;;;;;;;;;5050898;28;20037;-80
2023/04/25 00:44:24;;;;;;;4.55;1.55;;;;;;;;;;5053332;28;20040;-79
2023/04/25 00:46:50;;;;;;;4.25;1.73;;;;;;;;;;5037151;28;20041;-79
2023/04/25 00:49:16;;;;;;;4.85;1.63;;;;;;;;;;5053078;28;20533;-80
2023/04/25 00:51:44;;;;;;;4.70;1.58;;;;;;;;;;5050185;28;20467;-80
2023/04/25 00:54:10;;;;;;;;;;;;;;;;;;5052685;28;20177;-80
2023/04/25 00:56:35;;;;;;;6.78;1.70;;;;;;;;;;5053580;28;19955;-80
2023/04/25 00:59:01;;;;;;;5.03;1.63;;;;;;;;;;5039506;28;20072;-80
2023/04/25 01:01:27;;;;;;;7.50;2.13;;;;;;;;;;5037995;28;20040;-80
2023/04/25 01:03:53;;;;;;;4.32;1.55;;;;;;;;;;5032868;28;20112;-80
2023/04/25 01:06:19;;;;;;;6.00;1.92;;;;;;;;;;5038670;28;20128;-80
2023/04/25 01:08:44;;;;;;;4.18;1.70;;;;;;;;;;5054389;28;20119;-80
2023/04/25 01:11:10;;;;;;;4.63;1.50;;;;;;;;;;5060131;28;20042;-80
2023/04/25 01:13:35;;;;;;;3.72;1.40;;;;;;;;;;5051656;28;20033;-79
2023/04/25 01:16:02;;;;;;;4.55;1.27;;;;;;;;;;5052827;28;20388;-80
2023/04/25 01:18:27;;;;;;;4.75;1.60;;;;;;;;;;5054945;28;20566;-80
2023/04/25 01:20:53;;;;;;;4.10;1.60;;;;;;;;;;5051400;28;20037;-80
2023/04/25 01:23:23;;;;;;;4.63;1.70;;;;;;;;;;5052770;28;20037;-80
2023/04/25 01:25:49;;;;;;;5.18;1.80;;;;;;;;;;5059030;28;20072;-80
2023/04/25 01:28:15;;;;;;;4.47;1.50;;;;;;;;;;5043451;28;20032;-80
2023/04/25 01:30:40;;;;;;;4.95;1.65;;;;;;;;;;5052581;28;20054;-80
2023/04/25 01:33:08;;;;;;;4.78;1.60;;;;;;;;;;5050639;28;20056;-80
2023/04/25 01:35:33;;;;;;;6.68;1.67;;;;;;;;;;5048729;28;20029;-80
2023/04/25 01:37:58;;;;;;;6.03;1.67;;;;;;;;;;5050374;28;20382;-80
2023/04/25 01:40:24;;;;;;;4.47;1.75;;;;;;;;;;5057912;28;20149;-79
2023/04/25 01:42:50;;;;;;;4.30;1.70;;;;;;;;;;5049262;28;20135;-81
2023/04/25 01:45:17;;;;;;;3.55;1.40;;;;;;;;;;5037217;28;20512;-80
2023/04/25 01:47:43;;;;;;;5.82;2.00;;;;;;;;;;5033503;28;20503;-80
2023/04/25 01:50:11;;;;;;;5.15;1.63;;;;;;;;;;5049057;28;20041;-80
2023/04/25 01:52:37;;;;;;;5.07;1.90;;;;;;;;;;5042705;28;20041;-80
2023/04/25 01:55:02;;;;;;;4.18;1.58;;;;;;;;;;5056875;28;20400;-80
2023/04/25 01:57:28;;;;;;;4.97;1.92;;;;;;;;;;5038291;28;20029;-80
2023/04/25 01:59:58;;;;;;;7.35;2.00;;;;;;;;;;5052183;28;20127;-79
2023/04/25 02:02:24;;;;;;;4.07;1.50;;;;;;;;;;5056795;28;20088;-80
2023/04/25 02:04:50;;;;;;;5.40;1.80;;;;;;;;;;5057414;28;20111;-79
2023/04/25 02:07:15;;;;;;;7.72;2.17;;;;;;;;;;5054097;28;20056;-80
2023/04/25 02:09:41;;;;;;;6.45;1.75;;;;;;;;;;5036649;28;20032;-80
2023/04/25 02:12:08;;;;;;;4.38;1.73;;;;;;;;;;5052262;28;20152;-80
2023/04/25 02:14:34;;;;;;;4.13;1.80;;;;;;;;;;5041056;28;20060;-80
2023/04/25 02:16:59;;;;;;;3.60;1.85;;;;;;;;;;5053659;28;20072;-80
2023/04/25 02:19:25;;;;;;;4.90;2.10;;;;;;;;;;5056088;28;20029;-79
2023/04/25 02:21:50;;;;;;;3.92;1.83;;;;;;;;;;5051278;28;20437;-79
2023/04/25 02:24:16;;;;;;;5.45;1.77;;;;;;;;;;5056323;28;20396;-79
2023/04/25 02:26:41;;;;;;;3.65;1.85;;;;;;;;;;5053394;28;20139;-79
2023/04/25 02:29:06;;;;;;;5.30;2.10;;;;;;;;;;5055441;28;20037;-79
2023/04/25 02:31:32;;;;;;;6.78;2.50;;;;;;;;;;5042010;28;20094;-79
2023/04/25 02:33:57;;;;;;;5.40;2.20;;;;;;;;;;5062260;28;20033;-79
2023/04/25 02:36:23;;;;;;;6.78;2.85;;;;;;;;;;5053432;28;20099;-80
2023/04/25 02:38:50;;;;;;;5.20;2.08;;;;;;;;;;5040069;28;20098;-79
2023/04/25 02:41:15;;;;;;;5.32;2.10;;;;;;;;;;5060193;28;20392;-81
2023/04/25 02:43:40;;;;;;;4.93;2.10;;;;;;;;;;5055031;28;20035;-80
2023/04/25 02:46:06;;;;;;;5.50;2.00;;;;;;;;;;5040322;28;20123;-81
2023/04/25 02:48:31;;;;;;;7.38;2.40;;;;;;;;;;5052919;28;20381;-79
2023/04/25 02:50:57;;;;;;;6.05;2.47;;;;;;;;;;5050998;28;20344;-79
2023/04/25 02:53:22;;;;;;;8.65;3.03;;;;;;;;;;5038748;28;20041;-79
2023/04/25 02:55:47;;;;;;;4.65;2.10;;;;;;;;;;5055510;28;20039;-80
2023/04/25 02:58:13;;;;;;;7.10;2.05;;;;;;;;;;5056847;28;20538;-79
2023/04/25 03:00:38;;;;;;;9.57;2.28;;;;;;;;;;5045708;28;20048;-80
2023/04/25 03:03:04;;;;;;;7.57;2.50;;;;;;;;;;5040537;28;20049;-80
2023/04/25 03:05:29;;;;;;;5.20;2.25;;;;;;;;;;5054569;28;20033;-80
2023/04/25 03:07:55;;;;;;;7.13;2.45;;;;;;;;;;5053571;28;20198;-80
2023/04/25 03:10:20;;;;;;;5.05;2.00;;;;;;;;;;5052828;28;20028;-79
2023/04/25 03:12:46;;;;;;;5.82;2.83;;;;;;;;;;5035723;28;20036;-80
2023/04/25 03:15:11;;;;;;;6.75;2.78;;;;;;;;;;5056046;28;20040;-79
2023/04/25 03:17:36;;;;;;;6.07;2.00;;;;;;;;;;5055084;28;20113;-80
2023/04/25 03:20:03;;;;;;;6.35;2.55;;;;;;;;;;5052603;28;20032;-80
2023/04/25 03:22:29;;;;;;;5.57;2.40;;;;;;;;;;5052590;28;20511;-80
2023/04/25 03:24:54;;;;;;;6.97;2.45;;;;;;;;;;5053389;28;20151;-79
2023/04/25 03:27:20;;;;;;;5.90;2.50;;;;;;;;;;5050888;28;20048;-79
2023/04/25 03:29:45;;;;;;;5.88;2.15;;;;;;;;;;5053300;28;20028;-80
2023/04/25 03:32:10;;;;;;;5.28;2.35;;;;;;;;;;5037216;28;20041;-80
2023/04/25 03:34:36;;;;;;;6.07;2.17;;;;;;;;;;5051329;28;20443;-80
2023/04/25 03:37:01;;;;;;;6.95;2.30;;;;;;;;;;5055225;28;20039;-80
2023/04/25 03:39:26;;;;;;;6.20;2.70;;;;;;;;;;5053807;28;20055;-80
2023/04/25 03:41:52;;;;;;;6.28;2.65;;;;;;;;;;5052556;28;20029;-79
2023/04/25 03:44:17;;;;;;;7.68;2.58;;;;;;;;;;5056185;28;20040;-79
2023/04/25 03:46:43;;;;;;;5.72;2.53;;;;;;;;;;5050036;28;20075;-79
2023/04/25 03:49:08;;;;;;;7.47;3.00;;;;;;;;;;5066831;28;20032;-79
2023/04/25 03:51:33;;;;;;;5.07;2.65;;;;;;;;;;5055025;28;20033;-80
2023/04/25 03:53:59;;;;;;;5.88;2.63;;;;;;;;;;5051357;28;20123;-80
2023/04/25 03:56:24;;;;;;;5.22;2.15;;;;;;;;;;5050593;28;20040;-80
2023/04/25 03:58:50;;;;;;;6.85;2.22;;;;;;;;;;5051909;28;20071;-78
2023/04/25 04:01:15;;;;;;;5.38;2.22;;;;;;;;;;5040835;28;20037;-80
2023/04/25 04:03:41;;;;;;;6.82;2.40;;;;;;;;;;5053877;28;20071;-79
2023/04/25 04:06:07;;;;;;;6.10;2.58;;;;;;;;;;5052877;28;20033;-80
2023/04/25 04:08:33;;;;;;;7.15;2.58;;;;;;;;;;5053794;28;20487;-78
2023/04/25 04:10:59;;;;;;;6.60;2.67;;;;;;;;;;5059981;28;20035;-80
2023/04/25 04:13:28;;;;;;;5.88;2.20;;;;;;;;;;5051415;28;20029;-80
2023/04/25 04:15:53;;;;;;;7.47;2.55;;;;;;;;;;5049085;28;20554;-80
2023/04/25 04:18:19;;;;;;;5.57;2.45;;;;;;;;;;5053595;28;20041;-80
2023/04/25 04:20:44;;;;;;;6.20;2.72;;;;;;;;;;5050970;28;20036;-80
2023/04/25 04:23:10;;;;;;;5.57;2.17;;;;;;;;;;5045333;28;20063;-80
2023/04/25 04:25:36;;;;;;;6.88;2.60;;;;;;;;;;5038654;28;20067;-79
2023/04/25 04:28:01;;;;;;;8.63;2.67;;;;;;;;;;5037882;28;20090;-79
2023/04/25 04:30:30;;;;;;;7.45;3.03;;;;;;;;;;5053731;28;20040;-80
2023/04/25 04:32:56;;;;;;;5.68;2.38;;;;;;;;;;5053306;28;20107;-81
2023/04/25 04:35:22;;;;;;;7.13;2.90;;;;;;;;;;5049867;28;20569;-80
2023/04/25 04:37:48;;;;;;;6.38;2.60;;;;;;;;;;5050985;28;20761;-80
2023/04/25 04:40:15;;;;;;;6.93;2.92;;;;;;;;;;5049887;28;20040;-81
2023/04/25 04:42:41;;;;;;;7.07;2.60;;;;;;;;;;5048894;28;20530;-81
2023/04/25 04:45:07;;;;;;;6.03;2.53;;;;;;;;;;5059973;28;20114;-81
2023/04/25 04:47:33;;;;;;;9.13;3.17;;;;;;;;;;5051189;28;20119;-82
2023/04/25 04:49:59;;;;;;;5.07;2.72;;;;;;;;;;5050765;28;20037;-81
2023/04/25 04:52:24;;;;;;;7.45;2.72;;;;;;;;;;5051312;28;20037;-82
2023/04/25 04:54:50;;;;;;;5.70;2.55;;;;;;;;;;5051303;28;20029;-80
2023/04/25 04:57:16;;;;;;;5.50;2.35;;;;;;;;;;5051938;28;20025;-81
2023/04/25 04:59:41;;;;;;;7.93;2.95;;;;;;;;;;5050967;28;20033;-81
2023/04/25 05:02:07;;;;;;;8.90;2.67;;;;;;;;;;5048394;28;20064;-81
2023/04/25 05:04:32;;;;;;;7.25;2.88;;;;;;;;;;5048212;28;20032;-81
2023/04/25 05:06:58;;;;;;;6.18;2.85;;;;;;;;;;5049444;28;20039;-79
2023/04/25 05:09:25;;;;;;;5.50;2.63;;;;;;;;;;5053751;28;20445;-80
2023/04/25 05:11:51;;;;;;;5.28;2.50;;;;;;;;;;5049267;28;20519;-79
2023/04/25 05:14:17;;;;;;;7.85;2.53;;;;;;;;;;5038689;28;20037;-81
2023/04/25 05:16:43;;;;;;;5.68;2.70;;;;;;;;;;5049846;28;20494;-81
2023/04/25 05:19:08;;;;;;;5.38;2.22;;;;;;;;;;5041838;28;20028;-82
2023/04/25 05:21:34;;;;;;;9.65;2.63;;;;;;;;;;5051219;28;20043;-81
2023/04/25 05:24:00;;;;;;;5.88;2.45;;;;;;;;;;5047805;28;20472;-80
2023/04/25 05:26:25;;;;;;;7.82;3.15;;;;;;;;;;5051889;28;20090;-80
2023/04/25 05:28:51;;;;;;;6.57;2.83;;;;;;;;;;5052617;28;20064;-80
2023/04/25 05:31:18;;;;;;;6.93;2.88;;;;;;;;;;5036931;28;20056;-80
2023/04/25 05:33:44;;;;;;;8.35;2.85;;;;;;;;;;5051501;28;20475;-80
2023/04/25 05:36:09;;;;;;;6.35;2.67;;;;;;;;;;5036443;28;20068;-81
2023/04/25 05:38:35;;;;;;;7.22;2.97;;;;;;;;;;5052864;28;20085;-81
2023/04/25 05:41:00;;;;;;;5.50;2.45;;;;;;;;;;5048197;28;20527;-81
2023/04/25 05:43:25;;;;;;;6.60;2.58;;;;;;;;;;5051593;28;20033;-81
2023/04/25 05:45:51;;;;;;;9.38;2.65;;;;;;;;;;5048560;28;20110;-82
2023/04/25 05:48:16;;;;;;;6.22;2.92;;;;;;;;;;5051597;28;20174;-81
2023/04/25 05:50:41;;;;;;;7.22;3.60;;;;;;;;;;5050546;28;20033;-81
2023/04/25 05:53:07;;;;;;;6.13;2.95;;;;;;;;;;5036962;28;20114;-81
2023/04/25 05:55:32;;;;;;;6.70;2.70;;;;;;;;;;5053340;28;20032;-81
2023/04/25 05:57:57;;;;;;;5.57;2.95;;;;;;;;;;5051098;28;20037;-81
2023/04/25 06:00:23;;;;;;;5.32;2.67;;;;;;;;;;5052714;28;20140;-81
2023/04/25 06:02:49;;;;;;;6.55;3.15;;;;;;;;;;5037723;28;20120;-81
2023/04/25 06:05:14;;;;;;;6.47;3.20;;;;;;;;;;5051788;28;20638;-81
2023/04/25 06:07:40;;;;;;;5.65;2.97;;;;;;;;;;5052870;28;20048;-82
2023/04/25 06:10:06;;;;;;;8.95;2.78;;;;;;;;;;5052504;28;20095;-82
2023/04/25 06:12:33;;;;;;;9.77;3.38;;;;;;;;;;5040605;28;20040;-82
2023/04/25 06:14:58;;;;;;;6.82;2.92;;;;;;;;;;5029830;28;20036;-82
2023/04/25 06:17:24;;;;;;;8.00;3.30;;;;;;;;;;5046720;28;20040;-82
2023/04/25 06:19:49;;;;;;;6.57;3.10;;;;;;;;;;5050088;28;20040;-82
2023/04/25 06:22:15;;;;;;;8.23;2.90;;;;;;;;;;5039363;28;20507;-82
2023/04/25 06:25:02;;;;;;;8.43;3.22;;;;;;;;;;5051832;28;20045;-82
2023/04/25 06:27:27;;;;;;;;;;;;;;;;;;4969470;28;20039;-82
2023/04/25 06:30:13;;;;;;;6.70;2.63;;;;;;;;;;4968621;28;20362;-83
2023/04/25 06:32:39;;;;;;;9.20;3.00;;;;;;;;;;4906816;29;20276;-82
2023/04/25 06:35:05;;;;;;;7.63;3.00;;;;;;;;;;4893215;29;20047;-82
2023/04/25 06:37:30;;;;;;;7.57;2.85;;;;;;;;;;4907578;29;20099;-83
2023/04/25 06:39:55;;;;;;;7.00;3.15;;;;;;;;;;4893250;29;20095;-82
2023/04/25 06:42:21;;;;;;;6.85;3.10;;;;;;;;;;4894581;29;20043;-81
2023/04/25 06:44:46;;;;;;;7.53;3.53;;;;;;;;;;4894666;29;20047;-82
2023/04/25 06:47:12;;;;;;;6.57;2.72;;;;;;;;;;4880840;29;20108;-81
2023/04/25 06:49:37;;;;;;;5.18;2.83;;;;;;;;;;4910973;29;20046;-81
2023/04/25 06:52:03;;;;;;;6.15;2.80;;;;;;;;;;4894636;29;20527;-83
2023/04/25 06:54:29;;;;;;;8.27;3.05;;;;;;;;;;4897624;29;20040;-82
2023/04/25 06:56:55;;;;;;;7.63;2.95;;;;;;;;;;4895333;29;20115;-82
2023/04/25 06:59:21;;;;;;;5.00;2.55;;;;;;;;;;4897655;29;20127;-82
2023/04/25 07:01:46;;;;;;;5.15;2.40;;;;;;;;;;4895258;29;20047;-83
2023/04/25 07:04:11;;;;;;;5.93;2.38;;;;;;;;;;4943738;28;20414;-83
2023/04/25 07:06:42;;;;;;;5.30;2.53;;;;;;;;;;4986533;28;20421;-83
2023/04/25 07:09:08;;;;;;;6.93;2.67;;;;;;;;;;4999408;28;20045;-83
2023/04/25 07:11:34;;;;;;;8.82;2.72;;;;;;;;;;5042844;28;20056;-84
2023/04/25 07:13:59;;;;;;;6.07;2.67;;;;;;;;;;5055561;28;20075;-82
2023/04/25 07:16:25;;;;;;;5.75;2.80;;;;;;;;;;5059071;28;20135;-82
2023/04/25 07:18:50;;;;;;;5.30;2.63;;;;;;;;;;5053589;28;20033;-82
2023/04/25 07:21:16;;;;;;;6.80;2.72;;;;;;;;;;5043928;28;20036;-83
2023/04/25 07:23:41;;;;;;;6.47;2.47;;;;;;;;;;5040515;28;20029;-82
2023/04/25 07:26:07;;;;;;;5.00;2.42;;;;;;;;;;5051462;28;20142;-83
2023/04/25 07:28:32;;;;;;;7.25;2.30;;;;;;;;;;5051228;28;20037;-82
2023/04/25 07:30:58;;;;;;;7.20;2.40;;;;;;;;;;5041040;28;20575;-82
2023/04/25 07:33:23;;;;;;;7.20;2.20;;;;;;;;;;5051403;28;20029;-81
2023/04/25 07:35:49;;;;;;;6.85;2.42;;;;;;;;;;5042318;28;20033;-82
2023/04/25 07:38:14;;;;;;;8.77;2.20;;;;;;;;;;5053695;28;20048;-82
2023/04/25 07:40:39;;;;;;;9.10;2.50;;;;;;;;;;5052880;28;20085;-82
2023/04/25 07:43:05;;;;;;;9.50;2.72;;;;;;;;;;5056086;28;20441;-82
2023/04/25 07:45:30;;;;;;;11.10;2.80;;;;;;;;;;5055956;28;20536;-82
2023/04/25 07:47:56;;;;;;;5.38;2.20;;;;;;;;;;5032390;28;20048;-82
2023/04/25 07:50:21;;;;;;;7.97;2.40;;;;;;;;;;5054009;28;20396;-82
2023/04/25 07:52:47;;;;;;;9.75;2.70;;;;;;;;;;5039748;28;20037;-82
2023/04/25 07:55:12;;;;;;;5.25;2.08;;;;;;;;;;5051257;28;20499;-82
2023/04/25 07:57:38;;;;;;;9.77;2.55;;;;;;;;;;5060680;28;20057;-82
2023/04/25 08:00:04;;;;;;;7.18;2.30;;;;;;;;;;5050314;28;20059;-82
2023/04/25 08:02:30;;;;;;;8.00;2.20;;;;;;;;;;5067690;28;20501;-82
2023/04/25 08:04:55;;;;;;;6.40;1.95;;;;;;;;;;5053675;28;20109;-82
2023/04/25 08:07:21;;;;;;;6.78;2.25;;;;;;;;;;5039797;28;20041;-80
2023/04/25 08:09:46;;;;;;;8.30;2.70;;;;;;;;;;5043110;28;20119;-82
2023/04/25 08:12:11;;;;;;;8.23;2.63;;;;;;;;;;5051600;28;20073;-82
2023/04/25 08:14:38;;;;;;;8.00;2.80;;;;;;;;;;5059518;28;20092;-82
2023/04/25 08:17:04;;;;;;;6.72;2.08;;;;;;;;;;5051616;28;20052;-82
2023/04/25 08:19:30;;;;;;;10.75;2.25;;;;;;;;;;5051301;28;20029;-84
2023/04/25 08:21:56;;;;;;;9.55;2.05;;;;;;;;;;5039545;28;20091;-82
2023/04/25 08:24:22;;;;;;;8.52;2.10;;;;;;;;;;5050023;28;20061;-82
2023/04/25 08:26:48;;;;;;;8.55;2.25;;;;;;;;;;5052751;28;20051;-82
2023/04/25 08:29:13;;;;;;;8.60;1.98;;;;;;;;;;5049152;28;20598;-83
2023/04/25 08:31:39;;;;;;;8.32;2.13;;;;;;;;;;5051384;28;20036;-82
2023/04/25 08:34:04;;;;;;;7.53;1.80;;;;;;;;;;5051395;28;20036;-82
2023/04/25 08:36:31;;;;;;;9.13;1.45;;;;;;;;;;5056908;28;20036;-82
2023/04/25 08:38:56;;;;;;;11.50;1.83;;;;;;;;;;5037624;28;20111;-82
2023/04/25 08:41:22;;;;;;;6.82;1.38;;;;;;;;;;5051485;28;20035;-82
2023/04/25 08:43:48;;;;;;;10.40;1.75;;;;;;;;;;5052211;28;20040;-82
2023/04/25 08:46:17;;;;;;;9.88;2.13;;;;;;;;;;5053171;28;20484;-83
2023/04/25 08:48:44;;;;;;;4.72;1.40;;;;;;;;;;5059871;28;20068;-83
2023/04/25 08:51:10;;;;;;;3.90;1.13;;;;;;;;;;5051308;28;20874;-83
2023/04/25 08:53:37;;;;;;;7.80;1.60;;;;;;;;;;5036120;28;20116;-83
2023/04/25 08:56:03;;;;;;;4.82;1.50;;;;;;;;;;5030860;28;20037;-83
2023/04/25 08:58:29;;;;;;;7.97;1.65;;;;;;;;;;5037800;28;20043;-83
2023/04/25 09:00:54;;;;;;;9.68;1.88;;;;;;;;;;5052055;28;20056;-82
2023/04/25 09:03:20;;;;;;;6.95;1.80;;;;;;;;;;5048552;28;20751;-82
2023/04/25 09:05:45;;;;;;;7.13;1.92;;;;;;;;;;5029370;28;20044;-82
2023/04/25 09:08:11;;;;;;;4.78;1.50;;;;;;;;;;5051561;28;20032;-82
2023/04/25 09:10:37;;;;;;;7.32;1.80;;;;;;;;;;5050188;28;20047;-82
2023/04/25 09:13:10;;;;;;;5.22;1.20;;;;;;;;;;5050953;28;20055;-82
2023/04/25 09:15:48;;;;;;;5.22;1.27;;;;;;;;;;5041933;28;20032;-81
2023/04/25 09:18:22;;;;;;;7.80;2.00;;;;;;;;;;5051670;28;20033;-81
2023/04/25 09:20:47;;;;;;;5.10;1.30;;;;;;;;;;5035766;28;20377;-81
2023/04/25 09:23:14;;;;;;;7.38;2.10;;;;;;;;;;5031924;28;20039;-81
2023/04/25 09:25:40;;;;;;;6.18;1.33;;;;;;;;;;5049852;28;20048;-82
2023/04/25 09:28:06;;;;;;;4.28;1.45;;;;;;;;;;5049643;28;20118;-82
2023/04/25 09:30:34;;;;;;;5.72;1.55;;;;;;;;;;5049168;28;20041;-82
2023/04/25 09:33:20;;;;;;;8.77;1.75;;;;;;;;;;5050189;28;20043;-83
2023/04/25 09:35:45;;;;;;;4.57;1.42;;;;;;;;;;5049598;28;20059;-83
2023/04/25 09:38:12;;;;;;;7.03;1.63;;;;;;;;;;5056452;28;20516;-82
2023/04/25 09:40:42;;;;;;;7.95;1.77;;;;;;;;;;5056081;28;20511;-83
2023/04/25 09:43:21;;;;;;;7.43;1.75;;;;;;;;;;5048105;28;20049;-82
2023/04/25 09:45:47;;;;;;;7.13;1.90;;;;;;;;;;5056869;28;20040;-83
2023/04/25 09:48:20;;;;;;;5.88;1.70;;;;;;;;;;5056109;28;20043;-82
2023/04/25 09:51:06;;;;;;;5.68;1.42;;;;;;;;;;5050531;28;20739;-82
2023/04/25 09:53:33;;;;;;;5.68;1.48;;;;;;;;;;5043665;28;20040;-83
2023/04/25 09:56:00;;;;;;;6.90;1.50;;;;;;;;;;5057146;28;20041;-83
2023/04/25 09:58:25;;;;;;;5.00;1.65;;;;;;;;;;5059451;28;20028;-82
2023/04/25 10:00:51;;;;;;;5.70;1.70;;;;;;;;;;5049891;28;20114;-81
2023/04/25 10:03:20;;;;;;;6.18;1.30;;;;;;;;;;5036635;28;20056;-83
2023/04/25 10:05:46;;;;;;;4.97;1.40;;;;;;;;;;5044524;28;20131;-82
2023/04/25 10:08:12;;;;;;;5.28;1.63;;;;;;;;;;5041769;28;20071;-83
2023/04/25 10:10:40;;;;;;;6.18;1.27;;;;;;;;;;5034757;28;20572;-82
2023/04/25 10:13:06;;;;;;;5.47;1.38;;;;;;;;;;5053013;28;20094;-82
2023/04/25 10:15:35;;;;;;;5.30;1.40;;;;;;;;;;5047537;28;20815;-83
2023/04/25 10:18:00;;;;;;;5.72;1.25;;;;;;;;;;5048670;28;20539;-82
2023/04/25 10:20:26;;;;;;;4.97;0.85;;;;;;;;;;5051559;28;20040;-82
2023/04/25 10:22:56;;;;;;;4.43;1.17;;;;;;;;;;5055237;28;20040;-81
2023/04/25 10:25:22;;;;;;;7.75;2.00;;;;;;;;;;5040096;28;20062;-81
2023/04/25 10:27:51;;;;;;;6.28;1.70;;;;;;;;;;5054018;28;20059;-82
2023/04/25 10:30:18;;;;;;;4.53;1.50;;;;;;;;;;5054376;28;20044;-82
2023/04/25 10:32:45;;;;;;;5.93;1.37;;;;;;;;;;5039043;28;20697;-82
2023/04/25 10:35:12;;;;;;;4.50;1.25;;;;;;;;;;5059193;28;21276;-79
2023/04/25 10:37:38;;;;;;;5.00;1.58;;;;;;;;;;5060285;28;20040;-82
2023/04/25 10:40:10;;;;;;;9.73;1.95;;;;;;;;;;5055057;28;20542;-82
2023/04/25 10:42:35;;;;;;;6.72;1.80;;;;;;;;;;5051779;28;20041;-81
2023/04/25 10:45:05;;;;;;;4.10;1.15;;;;;;;;;;5052897;28;20520;-82
2023/04/25 10:47:36;;;;;;;5.68;1.40;;;;;;;;;;5061166;28;20064;-82
2023/04/25 10:50:28;;;;;;;3.65;1.10;;;;;;;;;;5050838;28;20037;-82
2023/04/25 10:52:54;;;;;;;5.47;1.08;;;;;;;;;;4997122;28;20121;-81
2023/04/25 10:55:20;;;;;;;6.90;2.15;;;;;;;;;;4983426;28;20037;-82
2023/04/25 10:57:47;;;;;;;5.72;1.42;;;;;;;;;;4982232;28;20061;-82
2023/04/25 11:00:18;;;;;;;9.23;1.70;;;;;;;;;;4998302;28;20042;-80
2023/04/25 11:02:48;;;;;;;7.05;1.60;;;;;;;;;;4966629;28;20145;-82
2023/04/25 11:05:27;;;;;;;8.27;1.70;;;;;;;;;;4997903;28;20034;-82
2023/04/25 11:07:57;;;;;;;5.85;1.35;;;;;;;;;;4995171;28;20517;-81
2023/04/25 11:10:27;;;;;;;6.65;1.42;;;;;;;;;;4982509;28;20098;-80
2023/04/25 11:12:52;;;;;;;5.28;1.30;;;;;;;;;;4995046;28;20042;-81
2023/04/25 11:15:17;;;;;;;4.85;1.20;;;;;;;;;;5001680;28;20623;-82
2023/04/25 11:17:46;;;;;;;5.28;1.30;;;;;;;;;;4966504;28;20033;-82
2023/04/25 11:20:13;;;;;;;5.60;1.40;;;;;;;;;;4974015;28;20046;-82
2023/04/25 11:22:40;;;;;;;5.28;1.48;;;;;;;;;;4989254;28;20095;-82
2023/04/25 11:25:07;;;;;;;6.05;1.10;;;;;;;;;;4999454;28;20656;-81
2023/04/25 11:27:36;;;;;;;3.20;1.08;;;;;;;;;;4986438;28;20406;-81
2023/04/25 11:30:17;;;;;;;4.22;0.93;;;;;;;;;;5024074;28;20041;-82
2023/04/25 11:32:43;;;;;;;3.15;1.00;;;;;;;;;;5038097;28;20361;-82
2023/04/25 11:35:09;;;;;;;6.53;1.35;;;;;;;;;;5040466;28;20047;-82
2023/04/25 11:37:36;;;;;;;5.75;1.10;;;;;;;;;;5052994;28;20061;-82
2023/04/25 11:40:02;;;;;;;6.57;1.60;;;;;;;;;;5051313;28;20029;-82
2023/04/25 11:42:28;;;;;;;4.13;1.10;;;;;;;;;;5052739;28;20437;-82
2023/04/25 11:44:53;;;;;;;3.88;1.15;;;;;;;;;;5053322;28;20045;-82
2023/04/25 11:47:18;;;;;;;4.85;1.10;;;;;;;;;;5044437;28;20036;-82
2023/04/25 11:49:44;;;;;;;5.30;1.15;;;;;;;;;;5056552;28;20041;-82
2023/04/25 11:52:09;;;;;;;6.57;0.95;;;;;;;;;;5051452;28;20036;-82
2023/04/25 11:54:36;;;;;;;5.53;1.17;;;;;;;;;;5053960;28;20119;-82
2023/04/25 11:57:03;;;;;;;3.45;0.98;;;;;;;;;;5033502;28;20048;-82
2023/04/25 11:59:28;;;;;;;4.70;1.10;;;;;;;;;;5059409;28;20047;-81
2023/04/25 12:01:54;;;;;;;3.50;1.10;;;;;;;;;;5039511;28;20032;-81
2023/04/25 12:04:21;;;;;;;7.30;1.17;;;;;;;;;;5054404;28;20812;-82
2023/04/25 12:06:48;;;;;;;4.05;1.02;;;;;;;;;;5054030;28;20057;-81
2023/04/25 12:09:15;;;;;;;8.50;1.90;;;;;;;;;;5034287;28;20052;-82
2023/04/25 12:11:45;;;;;;;4.43;1.20;;;;;;;;;;5060309;28;20036;-82
2023/04/25 12:14:11;;;;;;;4.32;1.20;;;;;;;;;;5060127;28;21011;-82
2023/04/25 12:16:44;;;;;;;5.10;1.20;;;;;;;;;;5058640;28;20039;-82
2023/04/25 12:19:09;;;;;;;3.88;0.98;;;;;;;;;;5043465;28;20132;-82
2023/04/25 12:21:35;;;;;;;5.95;1.30;;;;;;;;;;5050720;28;20134;-82
2023/04/25 12:24:26;;;;;;;6.43;1.30;;;;;;;;;;5050271;28;20095;-81
2023/04/25 12:27:04;;;;;;;4.18;1.42;;;;;;;;;;5049485;28;20493;-81
2023/04/25 12:29:31;;;;;;;3.03;1.10;;;;;;;;;;5048490;28;20029;-81
2023/04/25 12:31:57;;;;;;;5.18;1.20;;;;;;;;;;5042389;28;20544;-81
2023/04/25 12:34:23;;;;;;;2.95;0.90;;;;;;;;;;5053078;28;20095;-80
2023/04/25 12:36:50;;;;;;;5.20;1.42;;;;;;;;;;5066356;28;20492;-82
2023/04/25 12:39:21;;;;;;;5.28;1.25;;;;;;;;;;5068048;28;21218;-81
2023/04/25 12:41:50;;;;;;;4.20;0.93;;;;;;;;;;5050744;28;20515;-83
2023/04/25 12:44:36;;;;;;;6.13;1.20;;;;;;;;;;5049585;28;20495;-81
2023/04/25 12:47:02;;;;;;;4.65;1.33;;;;;;;;;;4966235;28;20050;-81
2023/04/25 12:49:31;;;;;;;4.28;1.17;;;;;;;;;;4991280;28;20038;-81
2023/04/25 12:51:57;;;;;;;4.97;1.20;;;;;;;;;;4990504;28;20046;-81
2023/04/25 12:54:22;;;;;;;7.85;1.50;;;;;;;;;;4975602;28;20406;-80
2023/04/25 12:56:47;;;;;;;5.68;1.45;;;;;;;;;;4974222;28;20030;-82
2023/04/25 12:59:13;;;;;;;8.73;1.10;;;;;;;;;;4991420;28;20042;-81
2023/04/25 13:01:38;;;;;;;2.85;0.88;;;;;;;;;;4960198;28;20041;-81
2023/04/25 13:04:04;;;;;;;3.78;0.82;;;;;;;;;;4988201;28;20038;-81
2023/04/25 13:06:30;;;;;;;6.78;1.15;;;;;;;;;;4975664;28;20398;-81
2023/04/25 13:08:56;;;;;;;2.30;0.73;;;;;;;;;;4973008;28;20518;-81
2023/04/25 13:11:21;;;;;;;2.80;0.93;;;;;;;;;;4963943;28;20060;-80
2023/04/25 13:13:46;;;;;;;4.22;1.00;;;;;;;;;;4973930;28;20260;-81
2023/04/25 13:16:15;;;;;;;5.40;1.20;;;;;;;;;;4989121;28;20471;-81
2023/04/25 13:18:40;;;;;;;4.78;0.90;;;;;;;;;;4974792;28;20904;-80
2023/04/25 13:21:06;;;;;;;4.72;0.88;;;;;;;;;;4990415;28;20045;-82
2023/04/25 13:23:31;;;;;;;4.97;0.82;;;;;;;;;;5007293;28;20118;-79
2023/04/25 13:25:57;;;;;;;4.30;1.20;;;;;;;;;;5036451;28;20117;-81
2023/04/25 13:28:24;;;;;;;4.18;1.20;;;;;;;;;;5037186;28;20056;-80
2023/04/25 13:30:51;;;;;;;4.88;1.10;;;;;;;;;;5050116;28;20029;-82
2023/04/25 13:33:17;;;;;;;4.70;1.48;;;;;;;;;;5059661;28;20064;-82
2023/04/25 13:35:42;;;;;;;3.00;0.80;;;;;;;;;;5048711;28;20579;-82
2023/04/25 13:38:08;;;;;;;3.92;1.17;;;;;;;;;;5040150;28;20047;-82
2023/04/25 13:40:34;;;;;;;3.83;0.80;;;;;;;;;;5050958;28;20123;-82
2023/04/25 13:43:00;;;;;;;3.97;0.90;;;;;;;;;;5052621;28;20032;-81
2023/04/25 13:45:25;;;;;;;3.63;0.70;;;;;;;;;;5052035;28;20032;-81
2023/04/25 13:47:50;;;;;;;4.63;1.17;;;;;;;;;;5050498;28;20037;-83
2023/04/25 13:50:18;;;;;;;4.70;0.90;;;;;;;;;;5035069;28;20423;-82
2023/04/25 13:52:45;;;;;;;3.80;1.17;;;;;;;;;;5050226;28;20112;-82
2023/04/25 13:55:12;;;;;;;4.05;1.10;;;;;;;;;;5050234;28;20047;-83
2023/04/25 13:57:38;;;;;;;3.85;1.00;;;;;;;;;;5057135;28;20039;-82
2023/04/25 14:00:08;;;;;;;3.55;1.10;;;;;;;;;;5054485;28;20036;-82
2023/04/25 14:02:34;;;;;;;2.88;1.15;;;;;;;;;;5039707;28;20062;-82
2023/04/25 14:05:00;;;;;;;4.28;1.00;;;;;;;;;;5040922;28;20077;-81
2023/04/25 14:07:26;;;;;;;3.95;1.10;;;;;;;;;;5054902;28;20485;-81
2023/04/25 14:09:51;;;;;;;4.63;1.00;;;;;;;;;;5053307;28;20559;-81
2023/04/25 14:12:17;;;;;;;2.78;1.02;;;;;;;;;;5055727;28;20039;-82
2023/04/25 14:14:42;;;;;;;3.78;1.05;;;;;;;;;;5053895;28;20044;-81
2023/04/25 14:17:09;;;;;;;5.38;1.13;;;;;;;;;;5055228;28;20037;-82
2023/04/25 14:19:36;;;;;;;4.13;1.10;;;;;;;;;;5055737;28;20037;-81
2023/04/25 14:22:01;;;;;;;3.08;0.80;;;;;;;;;;5052720;28;20120;-82
2023/04/25 14:24:27;;;;;;;3.50;0.90;;;;;;;;;;5060817;28;20175;-81
2023/04/25 14:26:52;;;;;;;7.15;1.42;;;;;;;;;;5038889;28;20044;-81
2023/04/25 14:29:17;;;;;;;2.65;0.80;;;;;;;;;;5045204;28;20055;-82
2023/04/25 14:31:43;;;;;;;4.10;1.15;;;;;;;;;;5042014;28;20059;-82
2023/04/25 14:34:08;;;;;;;4.50;1.00;;;;;;;;;;5044428;28;20037;-82
2023/04/25 14:36:35;;;;;;;3.33;0.82;;;;;;;;;;5055984;28;20444;-82
2023/04/25 14:39:01;;;;;;;6.32;1.23;;;;;;;;;;5040387;28;20144;-81